Ahoskie, North Carolina
Current Conditions -  °F | °C
As of 5:15 PM on Monday 26 Jan 2015 (Local Time) from KASJ Reporting Station
Overcast Overcast  
Wind Chill: 47°   Ceiling: 3700
Heat Index: 49°   Visibility: 10mi
Dew Point: 39°   Wind: 5mph
Humidity: 68%   Direction: 340°NNW
Pressure: 29.58"   Gusts: NA
Location:  36.29°N, 76.98°W
Report Text: KASJ 262215Z AUTO 34004KT 10SM OVC037 09/04 A2958 RMK AO2 T00940037
Loading
Personal Weather Stations






























Interactive Weather Map New forecast layout! Learn more

10-Day Weather Forecast

Advertisements
Track Severe Weather on mobile